Time;durP1;ratioP1;P1;durP2;ratioP2;P2;SDS_P1;SDS_P2;PMS_P1;PMS_P2;Temp;Humidity;BMP_temperature;BMP_pressure;BME280_temperature;BME280_humidity;BME280_pressure;Samples;Min_cycle;Max_cycle;Signal;HPM_P1;HPM_P2
2023/05/13 00:01:57;;;;;;;3.50;3.20;;;18.60;85.50;;;;;;4995250;28;20312;-71
2023/05/13 00:09:27;;;;;;;3.47;3.10;;;18.60;84.80;;;;;;4977252;28;20315;-72
2023/05/13 00:11:54;;;;;;;3.20;2.90;;;18.60;84.90;;;;;;4982729;28;20229;-72
2023/05/13 00:14:23;;;;;;;6.30;3.20;;;18.60;85.00;;;;;;4980742;28;20969;-71
2023/05/13 00:16:50;;;;;;;6.50;3.47;;;18.60;84.90;;;;;;4977818;28;20330;-71
2023/05/13 00:19:17;;;;;;;5.67;2.97;;;18.60;84.90;;;;;;4977687;28;20329;-73
2023/05/13 00:21:43;;;;;;;8.37;3.50;;;18.60;85.00;;;;;;4979560;28;20321;-73
2023/05/13 00:24:10;;;;;;;5.40;3.13;;;18.50;85.00;;;;;;4977971;28;20719;-73
2023/05/13 00:26:37;;;;;;;6.20;3.17;;;18.50;85.00;;;;;;4977521;28;20206;-73
2023/05/13 00:29:04;;;;;;;3.63;3.27;;;18.40;85.10;;;;;;4981799;28;20284;-74
2023/05/13 00:31:32;;;;;;;3.50;3.20;;;18.40;85.20;;;;;;4979971;28;20470;-73
2023/05/13 00:33:59;;;;;;;7.97;3.47;;;18.40;85.20;;;;;;4979409;28;20297;-73
2023/05/13 00:36:27;;;;;;;5.53;3.40;;;18.40;85.40;;;;;;4975512;28;20314;-73
2023/05/13 00:38:54;;;;;;;5.27;3.03;;;18.40;85.60;;;;;;4967600;28;20220;-73
2023/05/13 00:41:22;;;;;;;4.13;3.20;;;18.30;85.90;;;;;;4967767;28;20238;-73
2023/05/13 00:43:50;;;;;;;5.97;3.47;;;18.30;85.90;;;;;;4968189;28;20303;-73
2023/05/13 00:46:16;;;;;;;3.83;3.10;;;18.30;85.60;;;;;;4968013;28;20211;-73
2023/05/13 00:48:45;;;;;;;4.40;2.90;;;18.40;85.80;;;;;;4986669;28;20301;-73
2023/05/13 00:51:12;;;;;;;6.80;3.50;;;18.40;86.20;;;;;;4987536;28;20292;-73
2023/05/13 00:53:40;;;;;;;6.20;3.10;;;18.40;85.90;;;;;;4987163;28;20210;-73
2023/05/13 00:56:07;;;;;;;3.83;3.20;;;18.30;85.50;;;;;;4987313;28;20294;-73
2023/05/13 00:58:34;;;;;;;5.47;3.33;;;18.40;85.70;;;;;;4987538;28;20214;-73
2023/05/13 01:01:13;;;;;;;5.73;3.50;;;18.40;85.60;;;;;;4987801;28;20310;-74
2023/05/13 01:04:01;;;;;;;3.43;3.07;;;18.30;85.60;;;;;;4987347;28;20695;-73
2023/05/13 01:06:45;;;;;;;4.40;3.70;;;18.30;85.60;;;;;;4986698;28;20317;-73
2023/05/13 01:09:18;;;;;;;4.57;3.20;;;18.20;85.90;;;;;;4986262;28;20292;-73
2023/05/13 01:11:49;;;;;;;7.40;3.80;;;18.20;86.60;;;;;;4967831;28;20206;-73
2023/05/13 01:14:22;;;;;;;3.93;3.47;;;18.20;86.50;;;;;;4978633;28;20214;-73
2023/05/13 01:16:52;;;;;;;5.53;3.60;;;18.20;86.50;;;;;;4980573;28;20731;-73
2023/05/13 01:19:33;;;;;;;6.07;3.13;;;18.10;86.80;;;;;;4972556;28;20202;-73
2023/05/13 01:22:02;;;;;;;3.97;3.03;;;18.20;86.90;;;;;;4977806;28;20285;-73
2023/05/13 01:24:28;;;;;;;4.57;3.30;;;18.10;87.20;;;;;;4966973;28;20736;-73
2023/05/13 01:26:55;;;;;;;4.83;3.33;;;18.20;87.10;;;;;;4979763;28;20326;-72
2023/05/13 01:29:22;;;;;;;5.37;3.27;;;18.20;86.90;;;;;;4986896;28;20214;-72
2023/05/13 01:31:50;;;;;;;5.07;3.40;;;18.20;86.80;;;;;;4987090;28;20731;-72
2023/05/13 01:34:19;;;;;;;3.67;3.30;;;18.20;86.60;;;;;;4987026;28;20218;-72
2023/05/13 01:36:47;;;;;;;6.83;3.80;;;18.20;86.70;;;;;;4986200;28;20315;-72
2023/05/13 01:39:16;;;;;;;3.47;3.13;;;18.20;87.00;;;;;;4986957;28;20220;-72
2023/05/13 01:41:44;;;;;;;5.73;3.47;;;18.10;87.00;;;;;;4986459;28;20250;-73
2023/05/13 01:44:11;;;;;;;5.33;3.57;;;18.10;86.80;;;;;;4985599;28;20210;-72
2023/05/13 01:46:38;;;;;;;4.73;3.23;;;18.10;86.80;;;;;;4986305;28;20268;-71
2023/05/13 01:49:06;;;;;;;4.67;3.40;;;18.10;86.80;;;;;;4986160;28;20212;-72
2023/05/13 01:51:33;;;;;;;5.07;3.77;;;18.10;87.30;;;;;;4986222;28;20205;-72
2023/05/13 01:54:00;;;;;;;7.07;3.73;;;18.10;87.00;;;;;;4985755;28;20233;-72
2023/05/13 01:56:28;;;;;;;5.80;3.77;;;18.10;87.30;;;;;;4986063;28;20277;-72
2023/05/13 01:58:55;;;;;;;5.17;3.60;;;18.10;87.00;;;;;;4985822;28;20214;-72
2023/05/13 02:01:22;;;;;;;4.33;3.50;;;18.00;87.40;;;;;;4979237;28;20245;-72
2023/05/13 02:03:49;;;;;;;4.83;3.50;;;18.00;86.80;;;;;;4966647;28;20293;-72
2023/05/13 02:06:16;;;;;;;4.10;3.70;;;18.00;87.10;;;;;;4985966;28;20230;-72
2023/05/13 02:08:44;;;;;;;9.70;3.83;;;17.90;86.60;;;;;;4986738;28;20481;-72
2023/05/13 02:11:10;;;;;;;3.83;3.40;;;17.80;87.00;;;;;;4990309;28;20210;-72
2023/05/13 02:13:39;;;;;;;6.90;3.40;;;17.80;87.60;;;;;;4990004;28;20206;-72
2023/05/13 02:16:06;;;;;;;6.93;3.50;;;17.70;87.60;;;;;;4989061;28;20710;-73
2023/05/13 02:18:33;;;;;;;6.83;3.77;;;17.70;88.00;;;;;;4970655;28;20293;-72
2023/05/13 02:21:00;;;;;;;7.37;3.63;;;17.70;88.20;;;;;;4970771;28;20298;-72
2023/05/13 02:23:26;;;;;;;5.60;3.80;;;17.70;88.20;;;;;;4969994;28;20310;-72
2023/05/13 02:25:53;;;;;;;6.20;3.40;;;17.60;88.00;;;;;;4970770;28;20728;-72
2023/05/13 02:28:20;;;;;;;4.07;3.77;;;17.50;88.60;;;;;;4970485;28;20673;-73
2023/05/13 02:30:48;;;;;;;4.97;3.17;;;17.50;88.20;;;;;;4970675;28;20321;-73
2023/05/13 02:33:15;;;;;;;4.37;3.57;;;17.50;88.40;;;;;;4970389;28;20207;-73
2023/05/13 02:35:42;;;;;;;3.80;3.47;;;17.50;88.50;;;;;;4985404;28;20206;-74
2023/05/13 02:38:09;;;;;;;6.87;3.70;;;17.50;88.50;;;;;;4989844;28;20249;-74
2023/05/13 02:40:37;;;;;;;4.47;3.77;;;17.50;88.30;;;;;;4989444;28;20301;-73
2023/05/13 02:43:04;;;;;;;4.60;3.57;;;17.50;88.60;;;;;;4989548;28;20206;-73
2023/05/13 02:45:31;;;;;;;7.60;3.40;;;17.50;88.00;;;;;;4989609;28;20340;-72
2023/05/13 02:47:59;;;;;;;4.27;3.87;;;17.60;88.10;;;;;;4989870;28;20295;-72
2023/05/13 02:50:26;;;;;;;3.80;3.40;;;17.60;88.30;;;;;;4989306;28;20277;-72
2023/05/13 02:52:53;;;;;;;4.90;3.60;;;17.50;88.50;;;;;;4989519;28;20600;-72
2023/05/13 02:55:20;;;;;;;4.53;3.30;;;17.50;88.20;;;;;;4989256;28;20584;-72
2023/05/13 02:57:47;;;;;;;10.30;3.77;;;17.40;88.00;;;;;;4989606;28;20284;-72
2023/05/13 03:00:15;;;;;;;6.60;3.83;;;17.50;88.10;;;;;;4989363;28;21062;-72
2023/05/13 03:02:42;;;;;;;5.53;3.50;;;17.40;88.00;;;;;;4989793;28;20214;-72
2023/05/13 03:05:10;;;;;;;3.87;3.27;;;17.50;89.20;;;;;;4989630;28;20194;-72
2023/05/13 03:07:37;;;;;;;5.13;3.73;;;17.40;88.70;;;;;;4989184;28;20258;-72
2023/05/13 03:10:05;;;;;;;4.50;3.63;;;17.40;88.70;;;;;;4989431;28;20317;-72
2023/05/13 03:12:32;;;;;;;6.27;3.50;;;17.30;88.40;;;;;;4989031;28;20301;-73
2023/05/13 03:14:59;;;;;;;4.43;3.40;;;17.30;88.70;;;;;;4989087;28;20692;-73
2023/05/13 03:17:29;;;;;;;6.00;3.63;;;17.30;88.50;;;;;;4988607;28;20237;-73
2023/05/13 03:19:56;;;;;;;6.07;3.80;;;17.30;88.60;;;;;;4988634;28;20249;-73
2023/05/13 03:22:24;;;;;;;3.67;3.33;;;17.30;88.20;;;;;;4988499;28;20297;-73
2023/05/13 03:24:51;;;;;;;3.60;3.30;;;17.40;87.90;;;;;;4988419;28;20241;-73
2023/05/13 03:27:19;;;;;;;5.80;3.53;;;17.40;88.10;;;;;;4988320;28;20676;-73
2023/05/13 03:29:46;;;;;;;5.33;3.60;;;17.50;87.70;;;;;;4988154;28;20214;-73
2023/05/13 03:32:13;;;;;;;4.70;3.67;;;17.40;87.80;;;;;;4988305;28;20210;-73
2023/05/13 03:34:39;;;;;;;3.50;3.20;;;17.50;87.80;;;;;;4983066;28;20613;-73
2023/05/13 03:37:07;;;;;;;4.90;3.67;;;17.40;87.60;;;;;;4982682;28;20772;-73
2023/05/13 03:39:36;;;;;;;4.10;3.70;;;17.40;88.00;;;;;;4988587;28;20241;-73
2023/05/13 03:42:03;;;;;;;7.17;4.00;;;17.30;88.00;;;;;;4988968;28;20210;-73
2023/05/13 03:44:30;;;;;;;7.20;3.60;;;17.30;88.20;;;;;;4972413;28;20761;-73
2023/05/13 03:46:56;;;;;;;4.07;3.20;;;17.30;87.70;;;;;;4968898;28;20306;-73
2023/05/13 03:49:23;;;;;;;4.10;3.60;;;17.30;88.10;;;;;;4972314;28;20202;-73
2023/05/13 03:51:50;;;;;;;3.97;3.63;;;17.20;87.90;;;;;;4988563;28;20586;-73
2023/05/13 03:54:17;;;;;;;5.90;3.43;;;17.20;88.10;;;;;;4988271;28;20210;-73
2023/05/13 03:56:45;;;;;;;5.23;3.40;;;17.20;88.20;;;;;;4988189;28;20284;-72
2023/05/13 03:59:12;;;;;;;6.10;3.50;;;17.20;87.70;;;;;;4987918;28;20206;-72
2023/05/13 04:01:40;;;;;;;3.73;3.30;;;17.20;87.90;;;;;;4987779;28;20660;-71
2023/05/13 04:04:07;;;;;;;7.53;3.57;;;17.10;88.30;;;;;;4968990;28;20306;-71
2023/05/13 04:06:33;;;;;;;4.30;3.60;;;17.10;88.30;;;;;;4968513;28;20231;-71
2023/05/13 04:09:03;;;;;;;3.53;3.13;;;17.10;88.70;;;;;;4968137;28;20239;-72
2023/05/13 04:11:30;;;;;;;4.40;3.30;;;17.20;88.80;;;;;;4985744;28;20695;-72
2023/05/13 04:13:58;;;;;;;4.03;3.73;;;17.10;88.80;;;;;;4988038;28;20301;-72
2023/05/13 04:16:26;;;;;;;3.60;3.30;;;17.10;88.60;;;;;;4987545;28;20206;-72
2023/05/13 04:18:53;;;;;;;5.23;3.43;;;17.10;88.80;;;;;;4987917;28;20233;-71
2023/05/13 04:21:20;;;;;;;5.90;3.23;;;17.10;88.80;;;;;;4968707;28;20626;-72
2023/05/13 04:23:47;;;;;;;5.67;3.43;;;17.10;88.40;;;;;;4968630;28;20855;-73
2023/05/13 04:26:14;;;;;;;3.57;3.27;;;17.20;88.20;;;;;;4968311;28;20321;-73
2023/05/13 04:28:41;;;;;;;3.53;3.23;;;17.20;88.40;;;;;;4968762;28;20219;-73
2023/05/13 04:31:10;;;;;;;7.77;3.83;;;17.20;88.40;;;;;;4968081;28;21003;-73
2023/05/13 04:33:37;;;;;;;3.90;3.40;;;17.20;88.90;;;;;;4984137;28;20206;-73
2023/05/13 04:36:04;;;;;;;6.93;3.67;;;17.20;89.10;;;;;;4987279;28;20321;-72
2023/05/13 04:38:31;;;;;;;4.10;3.70;;;17.20;88.10;;;;;;4987419;28;20340;-72
2023/05/13 04:40:58;;;;;;;5.33;3.77;;;17.30;88.30;;;;;;4974163;28;20250;-72
2023/05/13 04:43:25;;;;;;;3.77;3.47;;;17.30;88.30;;;;;;4982181;28;20312;-72
2023/05/13 04:45:52;;;;;;;6.67;3.27;;;17.30;88.10;;;;;;4987291;28;20317;-72
2023/05/13 04:48:20;;;;;;;7.67;3.23;;;17.40;88.00;;;;;;4987078;28;20747;-72
2023/05/13 04:50:47;;;;;;;5.00;3.43;;;17.40;88.80;;;;;;4987391;28;20213;-72
2023/05/13 04:53:14;;;;;;;7.20;3.10;;;17.30;88.60;;;;;;4987340;28;20296;-72
2023/05/13 04:55:41;;;;;;;5.57;4.10;;;17.30;89.30;;;;;;4986839;28;20218;-72
2023/05/13 04:58:08;;;;;;;6.30;3.57;;;17.20;88.90;;;;;;4987016;28;20687;-72
2023/05/13 05:00:35;;;;;;;7.00;3.50;;;17.20;89.10;;;;;;4986854;28;20220;-72
2023/05/13 05:03:02;;;;;;;5.60;3.50;;;17.20;89.20;;;;;;4986851;28;20772;-71
2023/05/13 05:05:30;;;;;;;4.20;3.57;;;17.20;89.40;;;;;;4986865;28;20252;-71
2023/05/13 05:07:57;;;;;;;6.37;3.70;;;17.20;89.10;;;;;;4986690;28;20767;-72
2023/05/13 05:10:24;;;;;;;6.50;3.60;;;17.30;87.60;;;;;;4986658;28;20210;-72
2023/05/13 05:12:51;;;;;;;5.40;3.40;;;17.20;87.60;;;;;;4986455;28;20245;-72
2023/05/13 05:15:18;;;;;;;3.53;3.23;;;17.20;87.40;;;;;;4986537;28;20280;-72
2023/05/13 05:17:45;;;;;;;5.37;3.43;;;17.20;86.90;;;;;;4986447;28;20230;-71
2023/05/13 05:20:13;;;;;;;5.17;3.40;;;17.30;86.70;;;;;;4985985;28;20208;-72
2023/05/13 05:22:41;;;;;;;6.30;3.43;;;17.30;86.40;;;;;;4986421;28;20206;-71
2023/05/13 05:25:09;;;;;;;5.10;3.30;;;17.20;87.10;;;;;;4986539;28;20216;-71
2023/05/13 05:27:36;;;;;;;6.33;3.37;;;17.30;87.10;;;;;;4986188;28;20680;-72
2023/05/13 05:30:03;;;;;;;6.03;3.50;;;17.20;87.00;;;;;;4986569;28;20206;-71
2023/05/13 05:32:30;;;;;;;3.87;3.50;;;17.30;87.40;;;;;;4980965;28;20289;-72
2023/05/13 05:34:57;;;;;;;5.87;3.10;;;17.30;87.60;;;;;;4967033;28;20250;-72
2023/05/13 05:37:24;;;;;;;3.77;3.00;;;17.30;86.80;;;;;;4982934;28;20317;-73
2023/05/13 05:39:52;;;;;;;6.13;3.30;;;17.30;86.60;;;;;;4986505;28;20726;-73
2023/05/13 05:42:19;;;;;;;5.50;3.20;;;17.30;87.10;;;;;;4986144;28;20238;-72
2023/05/13 05:44:47;;;;;;;5.27;3.43;;;17.40;87.10;;;;;;4986303;28;20297;-73
2023/05/13 05:47:13;;;;;;;4.10;3.20;;;17.40;85.90;;;;;;4986985;28;20565;-73
2023/05/13 05:49:40;;;;;;;8.90;3.30;;;17.40;85.90;;;;;;4986149;28;20289;-72
2023/05/13 05:52:09;;;;;;;6.03;3.17;;;17.40;86.30;;;;;;4986577;28;20321;-72
2023/05/13 05:54:36;;;;;;;3.30;3.03;;;17.50;86.80;;;;;;4986180;28;20838;-72
2023/05/13 05:57:05;;;;;;;4.47;3.33;;;17.50;86.30;;;;;;4986226;28;20301;-72
2023/05/13 05:59:32;;;;;;;5.03;3.30;;;17.50;86.20;;;;;;4986662;28;20329;-72
2023/05/13 06:01:59;;;;;;;3.73;3.07;;;17.60;86.30;;;;;;4986526;28;20244;-72
2023/05/13 06:04:25;;;;;;;4.67;2.80;;;17.60;86.10;;;;;;4984173;28;20241;-72
2023/05/13 06:06:52;;;;;;;4.90;2.80;;;17.70;86.30;;;;;;4966782;28;20227;-72
2023/05/13 06:09:19;;;;;;;6.80;3.20;;;17.70;85.70;;;;;;4966502;28;21062;-72
2023/05/13 06:11:46;;;;;;;6.27;3.30;;;17.70;85.80;;;;;;4986590;28;20230;-72
2023/05/13 06:14:15;;;;;;;4.67;3.07;;;17.70;86.00;;;;;;4986115;28;20220;-72
2023/05/13 06:16:42;;;;;;;3.23;2.93;;;17.70;84.80;;;;;;4986189;28;20962;-72
2023/05/13 06:19:09;;;;;;;6.03;3.00;;;17.70;85.00;;;;;;4986366;28;20320;-72
2023/05/13 06:21:36;;;;;;;3.67;3.37;;;17.80;85.20;;;;;;4985905;28;20209;-72
2023/05/13 06:24:03;;;;;;;3.17;2.70;;;17.80;84.80;;;;;;4985853;28;20215;-72
2023/05/13 06:26:30;;;;;;;4.73;3.10;;;17.90;85.40;;;;;;4985838;28;20237;-71
2023/05/13 06:28:57;;;;;;;4.87;2.53;;;17.90;84.20;;;;;;4985853;28;20210;-72
2023/05/13 06:31:26;;;;;;;5.10;2.60;;;17.90;83.60;;;;;;4986252;28;20627;-72
2023/05/13 06:33:53;;;;;;;4.73;3.07;;;17.90;83.80;;;;;;4985852;28;20217;-72
2023/05/13 06:36:20;;;;;;;5.40;2.53;;;17.90;84.50;;;;;;4985574;28;20640;-72
2023/05/13 06:38:47;;;;;;;4.40;2.70;;;18.00;84.60;;;;;;4985374;28;20328;-72
2023/05/13 06:41:14;;;;;;;3.30;3.00;;;18.00;83.80;;;;;;4985281;28;20680;-72
2023/05/13 06:43:44;;;;;;;5.60;2.80;;;18.10;84.10;;;;;;4985913;28;20284;-72
2023/05/13 06:46:11;;;;;;;3.10;2.83;;;18.10;83.50;;;;;;4985685;28;20198;-72
2023/05/13 06:48:39;;;;;;;3.70;2.70;;;18.10;83.70;;;;;;4981760;28;20221;-72
2023/05/13 06:51:09;;;;;;;5.90;3.00;;;18.20;83.70;;;;;;4985813;28;20230;-72
2023/05/13 06:53:36;;;;;;;3.87;3.00;;;18.20;83.70;;;;;;4985850;28;20210;-72
2023/05/13 06:56:03;;;;;;;6.33;3.10;;;18.30;83.10;;;;;;4989385;28;20224;-73
2023/05/13 06:58:30;;;;;;;3.67;2.70;;;18.30;82.30;;;;;;4989526;28;20233;-73
2023/05/13 07:00:57;;;;;;;3.83;2.80;;;18.30;82.00;;;;;;4989388;28;20325;-73
2023/05/13 07:03:23;;;;;;;5.77;3.10;;;18.30;82.40;;;;;;4989269;28;20339;-73
2023/05/13 07:05:52;;;;;;;2.97;2.77;;;18.30;82.70;;;;;;4988724;28;20322;-73
2023/05/13 07:08:19;;;;;;;3.67;2.80;;;18.40;83.00;;;;;;4988726;28;20483;-73
2023/05/13 07:10:46;;;;;;;8.33;2.77;;;18.40;81.80;;;;;;4989447;28;20210;-73
2023/05/13 07:13:12;;;;;;;4.30;2.90;;;18.40;81.40;;;;;;4989230;28;20604;-73
2023/05/13 07:15:39;;;;;;;5.70;2.47;;;18.40;80.70;;;;;;4989387;28;20696;-73
2023/05/13 07:18:07;;;;;;;3.47;2.77;;;18.50;81.70;;;;;;4989132;28;20646;-73
2023/05/13 07:20:34;;;;;;;3.40;2.47;;;18.50;81.30;;;;;;4989534;28;20202;-71
2023/05/13 07:23:02;;;;;;;2.93;2.53;;;18.60;82.30;;;;;;4988542;28;20226;-71
2023/05/13 07:25:29;;;;;;;5.00;2.70;;;18.60;81.70;;;;;;4988108;28;20297;-71
2023/05/13 07:27:56;;;;;;;6.00;2.60;;;18.60;81.60;;;;;;4988739;28;20220;-71
2023/05/13 07:30:23;;;;;;;7.47;2.57;;;18.70;80.90;;;;;;4988710;28;20268;-71
2023/05/13 07:32:50;;;;;;;9.30;2.83;;;18.70;76.90;;;;;;4988888;28;20305;-71
2023/05/13 07:35:17;;;;;;;4.93;2.47;;;18.80;75.90;;;;;;4988803;28;20207;-71
2023/05/13 07:37:44;;;;;;;7.67;2.33;;;18.80;77.90;;;;;;4988645;28;20301;-71
2023/05/13 07:40:13;;;;;;;4.90;2.30;;;18.90;78.90;;;;;;4988545;28;20245;-72
2023/05/13 07:42:40;;;;;;;4.93;2.30;;;18.90;77.70;;;;;;4988310;28;20214;-70
2023/05/13 07:45:08;;;;;;;2.83;2.47;;;18.90;77.60;;;;;;4971603;28;20217;-71
2023/05/13 07:47:35;;;;;;;4.33;2.23;;;18.90;76.10;;;;;;4976376;28;20289;-71
2023/05/13 07:50:02;;;;;;;5.83;2.53;;;19.00;77.50;;;;;;4988530;28;20210;-71
2023/05/13 07:52:29;;;;;;;10.43;2.67;;;19.00;77.20;;;;;;4988501;28;20322;-72
2023/05/13 07:54:56;;;;;;;5.80;2.07;;;19.10;75.00;;;;;;4988366;28;20217;-72
2023/05/13 07:57:24;;;;;;;19.13;3.40;;;19.10;74.60;;;;;;4988527;28;20260;-72
2023/05/13 07:59:51;;;;;;;3.03;2.30;;;19.20;73.20;;;;;;4988763;28;20250;-73
2023/05/13 08:02:18;;;;;;;3.37;2.63;;;19.20;73.80;;;;;;4988318;28;20684;-72
2023/05/13 08:04:45;;;;;;;3.07;2.20;;;19.20;73.60;;;;;;4988154;28;20670;-72
2023/05/13 08:07:12;;;;;;;4.03;2.30;;;19.20;74.50;;;;;;4979737;28;20643;-72
2023/05/13 08:09:39;;;;;;;4.73;2.23;;;19.30;73.20;;;;;;4978519;28;20795;-73
2023/05/13 08:12:06;;;;;;;2.23;1.90;;;19.30;73.00;;;;;;4979631;28;20209;-72
2023/05/13 08:14:34;;;;;;;4.93;2.40;;;19.40;73.50;;;;;;4981313;28;20285;-72
2023/05/13 08:17:01;;;;;;;3.13;2.30;;;19.40;73.50;;;;;;4979322;28;20218;-73
2023/05/13 08:19:28;;;;;;;5.75;2.17;;;19.50;75.30;;;;;;4974376;28;20254;-72
2023/05/13 08:21:55;;;;;;;4.97;2.40;;;19.50;73.10;;;;;;4979165;28;20202;-71
2023/05/13 08:24:22;;;;;;;5.63;2.37;;;19.60;73.00;;;;;;4978499;28;20639;-71
2023/05/13 08:26:49;;;;;;;5.20;2.65;;;19.60;73.60;;;;;;4979211;28;20212;-71
2023/05/13 08:29:16;;;;;;;3.60;2.73;;;19.60;75.60;;;;;;4979436;28;20235;-72
2023/05/13 08:31:44;;;;;;;5.97;2.38;;;19.60;74.30;;;;;;4974426;28;20209;-71
2023/05/13 08:34:11;;;;;;;4.90;2.53;;;19.70;74.70;;;;;;4976694;28;20219;-72
2023/05/13 08:36:38;;;;;;;8.80;2.72;;;19.70;75.30;;;;;;4975972;28;20290;-72
2023/05/13 08:39:06;;;;;;;6.13;2.77;;;19.70;76.20;;;;;;4978545;28;20774;-72
2023/05/13 08:41:33;;;;;;;4.55;2.20;;;19.80;76.30;;;;;;4969778;28;20278;-72
2023/05/13 08:44:04;;;;;;;3.73;2.30;;;19.80;75.90;;;;;;4966109;28;20211;-72
2023/05/13 08:46:33;;;;;;;4.97;2.63;;;19.80;76.90;;;;;;4965824;28;20301;-72
2023/05/13 08:49:02;;;;;;;7.47;3.00;;;19.80;77.40;;;;;;4966045;28;20650;-72
2023/05/13 08:51:30;;;;;;;3.70;2.70;;;19.90;76.90;;;;;;4968633;28;20261;-72
2023/05/13 08:53:58;;;;;;;4.63;2.50;;;20.00;77.40;;;;;;4965557;28;20301;-72
2023/05/13 08:56:28;;;;;;;11.48;3.13;;;20.00;77.60;;;;;;4965718;28;20215;-72
2023/05/13 08:58:55;;;;;;;3.72;2.63;;;20.00;78.30;;;;;;4969009;28;20280;-72
2023/05/13 09:01:23;;;;;;;6.65;2.35;;;20.10;79.00;;;;;;4977274;28;20269;-72
2023/05/13 09:03:58;;;;;;;2.88;2.45;;;20.10;77.00;;;;;;4969650;28;20214;-72
2023/05/13 09:06:27;;;;;;;10.33;2.30;;;20.10;77.20;;;;;;4966073;28;20197;-72
2023/05/13 09:08:55;;;;;;;7.93;3.05;;;20.20;79.10;;;;;;4983339;28;20238;-72
2023/05/13 09:11:22;;;;;;;8.60;2.50;;;20.20;78.80;;;;;;4977641;28;20269;-72
2023/05/13 09:13:57;;;;;;;5.80;2.67;;;20.30;78.50;;;;;;4976118;28;20217;-71
2023/05/13 09:16:25;;;;;;;5.80;3.28;;;20.30;77.30;;;;;;4984384;28;20663;-72
2023/05/13 09:18:57;;;;;;;6.80;2.78;;;20.40;79.70;;;;;;4985219;28;20622;-72
2023/05/13 09:21:27;;;;;;;4.65;2.67;;;20.40;77.50;;;;;;4985648;28;20281;-72
2023/05/13 09:24:05;;;;;;;4.30;2.55;;;20.40;79.00;;;;;;4985331;28;20305;-72
2023/05/13 09:26:32;;;;;;;2.80;2.60;;;20.50;78.40;;;;;;4985828;28;20206;-72
2023/05/13 09:29:25;;;;;;;3.05;2.50;;;20.50;79.40;;;;;;4986047;28;20218;-73
2023/05/13 09:31:56;;;;;;;4.55;2.55;;;20.50;77.30;;;;;;4985797;28;20277;-72
2023/05/13 09:34:28;;;;;;;2.70;2.50;;;20.60;76.20;;;;;;4985417;28;20548;-72
2023/05/13 09:36:58;;;;;;;6.32;3.03;;;20.60;77.40;;;;;;4985283;28;20297;-72
2023/05/13 09:39:25;;;;;;;6.30;3.10;;;20.70;76.90;;;;;;4984233;28;20681;-72
2023/05/13 09:41:52;;;;;;;6.45;2.50;;;20.70;75.70;;;;;;4965721;28;20733;-72
2023/05/13 09:44:20;;;;;;;4.97;2.75;;;20.80;76.70;;;;;;4968136;28;20211;-73
2023/05/13 09:46:47;;;;;;;2.78;2.58;;;20.90;75.50;;;;;;4982428;28;20202;-73
2023/05/13 09:49:15;;;;;;;15.60;3.65;;;20.90;76.80;;;;;;4978700;28;20305;-73
2023/05/13 09:51:43;;;;;;;7.00;2.90;;;21.00;75.10;;;;;;4965234;28;20269;-73
2023/05/13 09:54:12;;;;;;;3.05;2.25;;;21.00;73.60;;;;;;4965383;28;20240;-72
2023/05/13 09:56:39;;;;;;;4.20;2.97;;;21.10;73.20;;;;;;4965349;28;20221;-72
2023/05/13 09:59:05;;;;;;;2.63;2.38;;;21.10;74.10;;;;;;4965012;28;20337;-72
2023/05/13 10:01:35;;;;;;;7.50;2.47;;;21.10;73.30;;;;;;4965120;28;20322;-72
2023/05/13 10:04:04;;;;;;;4.88;2.33;;;21.30;73.30;;;;;;4983991;28;20234;-73
2023/05/13 10:06:33;;;;;;;4.38;2.40;;;21.40;71.90;;;;;;4984579;28;20217;-72
2023/05/13 10:09:02;;;;;;;3.15;2.30;;;21.40;70.30;;;;;;4984410;28;20246;-72
2023/05/13 10:11:34;;;;;;;3.15;2.38;;;21.50;69.80;;;;;;4984421;28;20683;-72
2023/05/13 10:14:04;;;;;;;3.45;2.00;;;21.50;69.70;;;;;;4976859;28;20626;-72
2023/05/13 10:16:33;;;;;;;14.95;3.13;;;21.60;68.60;;;;;;4965000;28;20205;-72
2023/05/13 10:19:01;;;;;;;7.45;2.47;;;21.60;68.40;;;;;;4964968;28;20484;-73
2023/05/13 10:21:28;;;;;;;12.88;3.15;;;21.70;68.20;;;;;;4964663;28;20211;-72
2023/05/13 10:23:56;;;;;;;4.82;2.20;;;21.70;67.40;;;;;;4964708;28;20285;-72
2023/05/13 10:26:23;;;;;;;4.90;2.40;;;21.70;65.10;;;;;;4964329;28;20324;-72
2023/05/13 10:28:55;;;;;;;7.80;2.90;;;21.80;65.40;;;;;;4977138;28;20214;-72
2023/05/13 10:31:22;;;;;;;2.17;1.98;;;21.80;65.10;;;;;;4984493;28;20221;-72
2023/05/13 10:33:49;;;;;;;3.53;2.17;;;21.90;67.60;;;;;;4984770;28;20305;-73
2023/05/13 10:36:40;;;;;;;2.83;2.15;;;21.90;65.50;;;;;;4983197;28;20213;-72
2023/05/13 10:39:27;;;;;;;3.92;2.40;;;22.00;65.20;;;;;;4970269;28;20310;-73
2023/05/13 10:42:24;;;;;;;6.78;2.00;;;22.10;64.60;;;;;;4970316;28;20230;-73
2023/05/13 10:44:55;;;;;;;3.15;2.10;;;22.10;64.00;;;;;;4970052;28;20289;-73
2023/05/13 10:47:21;;;;;;;4.18;2.10;;;22.20;66.50;;;;;;4969885;28;20199;-73
2023/05/13 10:49:51;;;;;;;5.20;2.30;;;22.30;64.60;;;;;;4978751;28;20313;-73
2023/05/13 10:52:17;;;;;;;14.00;2.80;;;22.40;62.00;;;;;;4988744;28;20222;-73
2023/05/13 10:55:00;;;;;;;4.50;2.20;;;22.40;64.30;;;;;;4969705;28;20238;-73
2023/05/13 10:57:37;;;;;;;3.55;1.98;;;22.60;65.30;;;;;;4968830;28;20654;-74
2023/05/13 11:00:17;;;;;;;4.70;1.85;;;22.60;62.90;;;;;;4968706;28;20703;-73
2023/05/13 11:02:44;;;;;;;2.40;2.30;;;22.80;65.80;;;;;;4969754;28;20242;-73
2023/05/13 11:05:19;;;;;;;3.88;2.15;;;22.90;65.50;;;;;;4969403;28;20270;-73
2023/05/13 11:07:55;;;;;;;6.90;2.42;;;23.00;64.90;;;;;;4988023;28;20249;-73
2023/05/13 11:10:28;;;;;;;2.95;2.20;;;23.10;65.40;;;;;;4984070;28;20296;-74
2023/05/13 11:13:07;;;;;;;3.42;2.20;;;23.30;68.80;;;;;;4988954;28;20203;-73
2023/05/13 11:15:45;;;;;;;18.27;3.78;;;23.50;64.70;;;;;;4988771;28;20229;-73
2023/05/13 11:18:12;;;;;;;17.30;2.90;;;23.60;64.20;;;;;;4988624;28;20257;-74
2023/05/13 11:20:40;;;;;;;3.88;2.40;;;23.70;62.60;;;;;;4987763;28;20253;-73
2023/05/13 11:23:07;;;;;;;2.95;2.75;;;23.70;63.00;;;;;;4988771;28;20241;-73
2023/05/13 11:25:35;;;;;;;5.20;2.47;;;23.70;64.10;;;;;;4988084;28;20962;-73
2023/05/13 11:28:03;;;;;;;3.53;2.15;;;23.80;64.80;;;;;;4988584;28;20202;-74
2023/05/13 11:30:30;;;;;;;5.82;2.72;;;23.80;60.20;;;;;;4986937;28;20650;-73
2023/05/13 11:33:01;;;;;;;4.85;2.40;;;23.80;62.00;;;;;;4988451;28;20304;-73
2023/05/13 11:35:30;;;;;;;3.03;2.28;;;23.90;62.40;;;;;;4983800;28;20564;-73
2023/05/13 11:37:57;;;;;;;5.35;2.60;;;24.00;60.60;;;;;;4988668;28;20217;-73
2023/05/13 11:40:25;;;;;;;7.05;2.42;;;24.10;61.80;;;;;;4987414;28;20233;-72
2023/05/13 11:42:52;;;;;;;7.63;2.60;;;24.20;61.20;;;;;;4983037;28;20282;-73
2023/05/13 11:45:21;;;;;;;10.38;2.60;;;24.30;59.70;;;;;;4980799;28;20320;-73
2023/05/13 11:47:48;;;;;;;3.97;2.20;;;24.30;61.20;;;;;;4976492;28;20625;-73
2023/05/13 11:50:21;;;;;;;8.50;2.75;;;24.40;59.80;;;;;;4974114;28;20211;-73
2023/05/13 11:52:51;;;;;;;8.07;2.20;;;24.60;61.30;;;;;;4979673;28;20728;-73
2023/05/13 11:55:25;;;;;;;5.57;2.10;;;24.60;60.50;;;;;;4978378;28;20847;-73
2023/05/13 11:57:53;;;;;;;4.40;2.00;;;24.80;60.40;;;;;;4976641;28;20194;-73
2023/05/13 12:00:25;;;;;;;2.00;1.90;;;25.00;60.40;;;;;;4979135;28;20349;-73
2023/05/13 12:02:53;;;;;;;8.20;2.40;;;25.10;59.00;;;;;;4983214;28;20799;-73
2023/05/13 12:05:21;;;;;;;3.70;2.10;;;25.10;59.00;;;;;;4977784;28;20586;-73
2023/05/13 12:07:48;;;;;;;8.82;2.30;;;25.10;59.10;;;;;;4978230;28;20234;-73
2023/05/13 12:10:15;;;;;;;6.78;2.03;;;25.20;59.20;;;;;;4973870;28;20209;-73
2023/05/13 12:12:45;;;;;;;2.88;2.10;;;25.20;59.40;;;;;;4976643;28;20201;-73
2023/05/13 12:15:14;;;;;;;4.85;2.30;;;25.30;58.10;;;;;;4976720;28;20207;-73
2023/05/13 12:17:41;;;;;;;5.07;2.38;;;25.40;58.40;;;;;;4981494;28;20206;-73
2023/05/13 12:20:10;;;;;;;4.18;2.38;;;25.50;58.10;;;;;;4979443;28;20226;-73
2023/05/13 12:22:53;;;;;;;12.52;2.45;;;25.60;57.80;;;;;;4980593;28;20230;-73
2023/05/13 12:25:41;;;;;;;5.53;2.55;;;25.70;59.00;;;;;;4978113;28;20270;-73
2023/05/13 12:28:10;;;;;;;3.03;1.90;;;25.70;58.20;;;;;;4976646;28;20991;-73
2023/05/13 12:30:39;;;;;;;5.38;2.03;;;25.90;58.60;;;;;;4975394;28;20619;-73
2023/05/13 12:33:06;;;;;;;2.45;2.33;;;25.90;58.60;;;;;;4984131;28;20656;-73
2023/05/13 12:35:33;;;;;;;4.82;2.17;;;26.10;58.80;;;;;;4979180;28;20206;-73
2023/05/13 12:38:03;;;;;;;4.47;2.03;;;26.20;57.00;;;;;;4978530;28;20213;-72
2023/05/13 12:40:31;;;;;;;2.75;2.10;;;26.20;56.00;;;;;;4977886;28;20229;-73
2023/05/13 12:42:58;;;;;;;10.00;2.28;;;26.20;56.90;;;;;;4977355;28;20226;-73
2023/05/13 12:45:28;;;;;;;2.30;2.10;;;26.30;56.80;;;;;;4979172;28;20587;-73
2023/05/13 12:47:56;;;;;;;3.92;2.60;;;26.30;57.10;;;;;;4973976;28;20203;-73
2023/05/13 12:50:23;;;;;;;5.35;2.60;;;26.50;58.20;;;;;;4975571;28;20255;-73
2023/05/13 12:52:50;;;;;;;2.05;1.85;;;26.60;56.20;;;;;;4974185;28;20199;-73
2023/05/13 12:55:19;;;;;;;2.67;2.25;;;26.70;57.20;;;;;;4974384;28;20241;-73
2023/05/13 12:57:56;;;;;;;6.15;2.08;;;26.80;57.60;;;;;;4975130;28;20285;-72